Normangee, TX (77871)

12:57 AM CST on March 01, 2015 (GMT -0600)
Lazy R Ranch | Change Station
CLOSE
Current Station
Personal Weather Station
Location: Normangee, TX
Elevation: 479 ft
Nearby Weather Stations

Elev 479 ft 31.14 °N, 96.10 °W | Updated 7 minutes ago

Overcast
Overcast
37.8 °F
Feels Like 36 °F
N
3.2
Wind Variable Wind from NNW

Today
High -- | Low -- °F
--% Chance of Precip.
Yesterday
High -- | Low -- °F
Precip. -- in
6:51 AM 6:22 PM
Waxing Gibbous, 83% visible
Pressure 30.26 in
Visibility 3.0 miles
Clouds Overcast 500 ft
Windchill 36 °F
Dew Point 38 °F
Humidity 99%
Rainfall 0.00 in
Snow Depth Not available.
UV 0 out of 12
Pollen 5.10 out of 12
Air Quality Not available.
Flu Activity Not available.
METAR KCFD 010635Z AUTO 36005KT 3SM BR OVC005 04/04 A3026 RMK AO2 T00400036

More Conditions Fewer Conditions

Pressure 30.26 in
Visibility 3.0 miles
Clouds Overcast 500 ft
Windchill 36 °F
Dew Point 38 °F
Humidity 99%
Rainfall 0.00 in
Snow Depth Not available.
UV 0 out of 12
Pollen 5.10 out of 12
Air Quality Not available.
Flu Activity Not available.
METAR KCFD 010635Z AUTO 36005KT 3SM BR OVC005 04/04 A3026 RMK AO2 T00400036

More Conditions Fewer Conditions

Nowcast | as of 10:43 PM CST on February 28, 2015

Areas of light freezing drizzle and drizzle will continue to occur namely northeast of a Hamilton...Fort Worth...Sherman line through 2 am CST. Though temperatures are hovering around freezing just southeast of that line into Dallas-Fort Worth metroplex... freezing on main roads and highways is not expected.B however... elevated surfaces such as bridges and overpasses could have patchy icing into the predawn hours Sunday. Areas southeast of a Sherman to Dallas to Hamilton line should remain a degree or two above freezing with no additional impacts expected. The freezing line shift very slowly northwest to a Comanche...to Mineral Wells...to Bowie line by sunrise as temperatures slowly creep into the mid 30s to the east. Bridges and overpasses will still have patchy icy spots as far southeast as a Sherman to Dallas to Hamilton line. Check Road reports before traveling tonight across the northwest half of North Texas.

×

10-Day Weather Forecast

Almanac

Astronomy

Mar. 01, 2015 Rise Set
Actual Time
Civil Twilight
Nautical Twilight
Astronomical Twilight
Moon
Length of Visible Light
Length of Day
Tomorrow will be .
, % of the Moon is Illuminated

Today's Extremes

State Highs State Lows

Community

WunderPhotos

Upload Photos

1,801,345 photos uploaded!

WunderBlogs® & News

Nearby

Air Quality

  Air Quality AQ Index Pollutant
Not available.

Snow Depth

Station Depth Elevation

Earthquake Activity

City Distance Mag. Time & Date
Minimum magnitude displayed is 2.5.

Coastal Water Temperatures

Place Temperature

Nearby Weather Stations